ESMK/KID METAR and TAF weather

Enter ICAO airport designator
Station Type Date Time Source
ESMK METAR 2022/06/27 17:50 UTC NOAA

ESMK 271750Z 13004KT 100V160 CAVOK 23/17 Q1013


Station Type Date Time Source
ESMK Decoded METAR 2022/06/27 17:50 UTC NOAA

Kristianstad / Everod, Sweden (ESMK) 55-55N 014-05E
Jun 27, 2022 - 01:50 PM EDT / 2022.06.27 1750 UTC
Wind: from the SE (130 degrees) at 5 MPH (4 KT) (direction variable):0
Visibility: greater than 7 mile(s):0
Temperature: 73 F (23 C)
Dew Point: 62 F (17 C)
Relative Humidity: 68%
Pressure (altimeter): 29.91 in. Hg (1013 hPa)
ob: ESMK 271750Z 13004KT 100V160 CAVOK 23/17 Q1013
cycle: 18

Station Type Date Time Source
ESMK TAF 2020/07/19 09:57 UTC NOAA

TAF TAF ESMK 190930Z 1909/1921 13008KT CAVOK PROB40 1910/1919 SCT030TCU

Example: see airport list